x

New London Ledge Ct - Ledge Light Weather Station (ldlc3) Weather Station

5:50 - Sat 1st Oct 2016 All times are EDT. -4 hours from GMT.

  • Wind
    13mph, 20mph gusts
  • Ar Temp 60°f
  • Sea Pressure 1022.3mb
  • New London Ledge Ct - Ledge Light Weather Station
  • New London Ledge Ct - Ledge Light Weather Station

More Historic Weather Station data

Upgrade to MSW Pro to gain access to the past 30 days of data for over 8000 Wavebouys and Weather Stations around the globe.

Join Pro

Comparision Forecast

View Surf forecast
   
Sáb 10/01 5:50 13 20 mph 1022.3mb 60f
5:35 14 18 mph 1022.3mb 60f
5:20 13 21 mph 1022.3mb 60f
5:05 14 21 mph 1022.1mb 60f
4:50 13 20 mph 1022.2mb 60f
4:35 13 21 mph 1022.1mb 60f
4:20 14 20 mph 1022mb 60f
4:05 11 17 mph 1022.1mb 59f
3:50 14 21 mph 1022.2mb 59f
3:35 14 21 mph 1022.3mb 59f
3:20 13 18 mph 1022.5mb 59f
3:05 14 21 mph 1022.4mb 59f
2:50 13 16 mph 1022.5mb 59f
2:35 14 20 mph 1022.5mb 59f
2:20 14 21 mph 1022.8mb 59f
2:05 14 21 mph 1023mb 59f
1:50 14 20 mph 1023.1mb 59f
1:35 13 17 mph 1023.2mb 59f
1:20 13 18 mph 1023.2mb 59f
1:05 13 21 mph 1023.2mb 59f
Sex 09/30 7:50 15 22 mph 1024.4mb 58f
7:35 15 22 mph 1024.5mb 58f
7:05 16 22 mph 1024.6mb 58f
6:50 16 22 mph 1024.6mb 58f
6:35 16 23 mph 1024.6mb 58f
6:20 17 28 mph 1024.5mb 58f
6:05 17 26 mph 1024.6mb 58f
5:50 17 25 mph 1024.7mb 58f
5:35 15 22 mph 1024.8mb 58f
5:20 16 23 mph 1024.8mb 58f
5:05 17 29 mph 1024.8mb 58f
4:50 17 25 mph 1025mb 59f
4:35 21 30 mph 1024.8mb 59f
4:20 21 29 mph 1024.8mb 59f
4:05 16 23 mph 1025mb 59f
3:50 16 24 mph 1025mb 60f
3:35 17 26 mph 1025mb 59f
3:20 18 25 mph 1025.2mb 59f
3:05 16 22 mph 1025.2mb 59f
2:50 16 26 mph 1025.5mb 59f
2:35 14 21 mph 1025.7mb 60f
2:20 16 23 mph 1025.7mb 60f
2:05 14 21 mph 1025.9mb 60f
1:50 16 26 mph 1026mb 60f
1:35 15 23 mph 1026.2mb 60f
1:20 14 23 mph 1026.5mb 59f
1:05 16 23 mph 1026.8mb 60f
12:50 16 22 mph 1026.8mb 60f
12:35 16 23 mph 1026.8mb 60f
12:20 16 24 mph 1026.7mb 60f
12:05 16 23 mph 1026.8mb 61f
11:50 18 25 mph 1026.9mb 61f
11:35 24 31 mph 1026.7mb 61f
11:20 22 31 mph 1026.7mb 62f
11:05 23 31 mph 1026.7mb 62f
10:50 22 28 mph 1026.8mb 62f
10:35 25 30 mph 1026.8mb 62f
10:20 28 36 mph 1026.5mb 62f
10:05 24 30 mph 1026.7mb 62f
9:50 22 30 mph 1026.9mb 62f
9:35 23 29 mph 1026.8mb 61f
9:20 17 25 mph 1027.3mb 61f
9:05 18 29 mph 1027mb 60f
8:50 16 25 mph 1026.9mb 60f
8:35 17 25 mph 1026.9mb 60f
8:20 16 23 mph 1027.2mb 60f
8:05 18 29 mph 1026.9mb 60f
7:50 16 22 mph 1027mb 59f
7:35 16 25 mph 1027mb 59f
7:20 16 26 mph 1027.1mb 59f
7:05 15 20 mph 1027.1mb 59f
6:50 17 28 mph 1027.1mb 59f
6:35 15 25 mph 1027.2mb 58f
6:20 16 22 mph 1027.2mb 58f
6:05 16 22 mph 1027mb 58f
5:50 15 21 mph 1026.9mb 58f
5:35 15 21 mph 1027.1mb 58f
5:20 14 23 mph 1027mb 58f
5:05 15 20 mph 1026.9mb 58f
4:50 15 21 mph 1027mb 58f
4:35 16 22 mph 1026.9mb 58f
4:20 15 20 mph 1026.9mb 58f
4:05 14 22 mph 1027.3mb 58f
3:50 15 20 mph 1027.2mb 58f
3:35 14 18 mph 1027.4mb 58f
3:20 15 21 mph 1027.5mb 58f
3:05 15 24 mph 1027.6mb 58f
2:50 14 21 mph 1027.7mb 58f
2:35 15 21 mph 1027.8mb 58f
2:20 15 23 mph 1027.9mb 58f
2:05 16 25 mph 1028.1mb 58f
1:50 16 25 mph 1028mb 58f
1:35 16 26 mph 1027.9mb 58f
1:20 17 23 mph 1028.4mb 58f
1:05 15 25 mph 1028.5mb 58f
Qui 09/29 7:50 21 28 mph 1029.2mb 58f
7:35 17 22 mph 1029.3mb 58f
7:20 17 26 mph 1029.2mb 58f
7:05 15 18 mph 1029.1mb 58f
6:50 16 21 mph 1029.1mb 58f
6:35 21 28 mph 1028.6mb 58f
6:20 18 26 mph 1028.9mb 59f
6:05 20 26 mph 1028.7mb 59f
5:50 16 22 mph 1028.8mb 59f
5:35 16 22 mph 1028.8mb 60f
5:20 18 24 mph 1029.1mb 60f
5:05 24 28 mph 1028.7mb 60f
4:50 20 28 mph 1028.7mb 60f
4:35 22 28 mph 1028.7mb 61f
4:20 20 25 mph 1028.6mb 61f
4:05 21 26 mph 1028.6mb 62f
3:50 24 29 mph 1028.4mb 62f
3:35 23 29 mph 1028.3mb 62f
3:20 20 29 mph 1028.3mb 62f
3:05 21 28 mph 1028.4mb 62f
2:50 21 29 mph 1028.5mb 62f
2:35 21 24 mph 1028.5mb 63f
2:20 21 29 mph 1028.7mb 63f
2:05 20 25 mph 1028.7mb 62f
1:50 24 28 mph 1028.7mb 63f
1:35 20 26 mph 1028.7mb 63f
1:20 24 30 mph 1028.7mb 62f
1:05 24 29 mph 1028.9mb 62f
12:50 24 28 mph 1029mb 62f
12:35 17 25 mph 1029.1mb 62f
12:20 15 22 mph 1029.2mb 62f
12:05 23 28 mph 1029mb 62f
11:50 23 28 mph 1029mb 61f
11:35 28 34 mph 1028.7mb 61f
11:20 17 28 mph 1028.6mb 61f
11:05 24 28 mph 1028.7mb 60f
10:50 20 26 mph 1028.9mb 60f
10:35 28 36 mph 1028.2mb 60f
10:20 28 36 mph 1028.2mb 60f
10:05 23 29 mph 1028.1mb 60f
9:50 14 24 mph 1028.5mb 60f
9:35 15 24 mph 1028.6mb 60f
9:20 18 30 mph 1028.1mb 60f
9:05 18 23 mph 1027.8mb 59f
8:50 18 28 mph 1027.7mb 59f
8:35 16 21 mph 1027.5mb 58f
8:20 15 21 mph 1027.3mb 58f
8:05 16 23 mph 1027.6mb 58f
7:50 15 24 mph 1027.4mb 58f
7:35 16 22 mph 1027.1mb 58f
7:20 15 22 mph 1027.2mb 58f
7:05 14 21 mph 1027.2mb 59f
6:50 14 20 mph 1026.9mb 59f
6:35 13 21 mph 1026.8mb 59f
6:20 14 20 mph 1026.6mb 59f
6:05 14 18 mph 1026.5mb 59f
5:50 13 17 mph 1026.5mb 60f
5:35 14 17 mph 1026.3mb 60f
5:20 13 18 mph 1026.3mb 60f
5:05 15 21 mph 1026mb 60f
4:50 11 16 mph 1025.8mb 60f
4:35 13 17 mph 1025.8mb 60f
4:20 15 21 mph 1025.4mb 60f
4:05 16 22 mph 1025.1mb 60f
3:50 15 22 mph 1025.1mb 60f
3:35 16 25 mph 1025mb 60f
3:20 15 23 mph 1025mb 60f
3:05 13 21 mph 1025.1mb 60f
2:50 15 21 mph 1025mb 60f
2:35 17 26 mph 1024.9mb 60f
2:20 14 20 mph 1025mb 60f
2:05 16 23 mph 1024.6mb 60f
1:50 13 21 mph 1024.7mb 60f
1:35 14 20 mph 1024.6mb 60f
1:20 13 23 mph 1024.6mb 60f
1:05 14 23 mph 1024.5mb 60f
Qua 09/28 7:50 16 23 mph 1022.8mb 58f
7:35 14 21 mph 1022.5mb 58f
7:20 18 26 mph 1022.4mb 58f
7:05 16 23 mph 1022.4mb 58f
6:50 16 25 mph 1022.4mb 58f
6:35 13 20 mph 1022.3mb 58f
6:20 16 23 mph 1021.9mb 58f
6:05 13 20 mph 1022.2mb 59f
5:50 17 28 mph 1021.9mb 59f
5:35 18 30 mph 1022mb 59f
5:20 17 26 mph 1021.8mb 59f
5:05 17 29 mph 1021.7mb 59f
4:50 21 29 mph 1021.4mb 59f
4:35 15 21 mph 1021.4mb 60f
4:20 18 28 mph 1021.1mb 60f
4:05 14 18 mph 1021mb 61f
3:50 17 32 mph 1021mb 61f
3:35 15 20 mph 1021.1mb 62f
3:20 17 28 mph 1021.2mb 62f
3:05 17 24 mph 1020.7mb 62f
2:50 16 23 mph 1020.7mb 62f
2:35 16 23 mph 1020.5mb 63f
2:20 21 31 mph 1020.4mb 63f
2:05 16 24 mph 1020.4mb 64f
1:50 17 26 mph 1020.4mb 64f
1:35 17 28 mph 1020.2mb 64f
1:20 20 26 mph 1020.1mb 64f
1:05 14 23 mph 1020.3mb 64f
12:50 20 29 mph 1020.3mb 63f
12:35 15 24 mph 1020.5mb 63f
12:20 16 23 mph 1020.8mb 63f
12:05 18 24 mph 1020.4mb 63f
11:50 20 29 mph 1020.5mb 63f
11:35 17 29 mph 1020.2mb 63f
11:20 20 26 mph 1020.2mb 62f
11:05 18 28 mph 1020.2mb 62f
10:50 24 33 mph 1020mb 62f
10:35 26 32 mph 1020mb 62f
10:20 20 30 mph 1019.9mb 62f
10:05 17 23 mph 1019.8mb 63f
9:50 18 28 mph 1019.9mb 63f
9:35 15 23 mph 1019.9mb 63f
9:20 15 21 mph 1019.9mb 63f
9:05 16 22 mph 1019.7mb 63f
8:50 16 24 mph 1019.6mb 63f
8:35 13 18 mph 1019.4mb 62f
8:20 14 21 mph 1019.1mb 62f
8:05 14 20 mph 1019mb 62f
7:50 13 20 mph 1018.8mb 62f
7:35 11 17 mph 1018.7mb 62f
7:20 15 21 mph 1018.4mb 62f
7:05 15 22 mph 1018.2mb 62f
6:50 14 21 mph 1018.1mb 62f
6:35 11 17 mph 1018mb 63f
6:20 16 23 mph 1017.8mb 63f
6:05 17 21 mph 1017.7mb 62f
5:50 10 15 mph 1017.5mb 62f
5:35 10 13 mph 1017.1mb 62f
5:20 9 14 mph 1017.1mb 62f
5:05 10 15 mph 1017.1mb 61f
4:50 10 14 mph 1017mb 61f
4:35 9 11 mph 1016.9mb 60f
4:20 9 14 mph 1016.7mb 60f
4:05 11 14 mph 1016.8mb 60f
3:50 8 10 mph 1016.6mb 60f
3:35 7 11 mph 1016.6mb 60f
3:20 6 9 mph 1016.6mb 60f
3:05 5 7 mph 1016.4mb 60f
2:50 13 15 mph 1016mb 61f
2:35 11 14 mph 1016mb 61f
2:20 14 16 mph 1015.8mb 61f
2:05 14 17 mph 1015.7mb 61f
1:50 15 16 mph 1015.7mb 61f
1:35 16 18 mph 1015.7mb 61f
1:20 15 16 mph 1015.8mb 62f
1:05 14 15 mph 1015.4mb 62f
Ter 09/27 7:50 8 9 mph 1013.3mb 68f
7:35 9 10 mph 1013.3mb 68f
7:20 7 8 mph 1013.1mb 68f
7:05 8 10 mph 1012.9mb 68f
6:50 8 9 mph 1012.8mb 68f
6:35 9 10 mph 1012.7mb 68f
6:20 9 10 mph 1012.7mb 68f
6:05 8 9 mph 1012.6mb 69f
5:50 7
mph
1012.4mb 69f
5:35 5 6 mph 1012mb 70f
5:20 5
mph
1011.9mb 69f
5:05 6 7 mph 1011.8mb 68f
4:50 7 8 mph 1011.9mb 69f
4:35 8 9 mph 1011.9mb 69f
4:20 8 9 mph 1011.9mb 69f
4:05 3 5 mph 1011.6mb 70f
3:50 6 7 mph 1011.8mb 69f
3:35 6 7 mph 1011.7mb 69f
3:20 5 6 mph 1011.8mb 70f
3:05 5 6 mph 1011.8mb 70f
2:50 6 7 mph 1012mb 70f
2:35 6 7 mph 1012mb 70f
2:20 6 7 mph 1012mb 70f
2:05 6
mph
1011.9mb 69f
1:50 3 5 mph 1011.8mb 70f
1:35 2 3 mph 1011.8mb 70f
1:20 2 3 mph 1012mb 69f
1:05 1 2 mph 1012.3mb 72f
12:50 2 3 mph 1012.5mb 71f
12:35 5 7 mph 1012.5mb 69f
12:20 6 7 mph 1012.5mb 69f
12:05 6 7 mph 1012.5mb 68f
11:50 8 10 mph 1012.7mb 67f
11:35 8 10 mph 1012.7mb 67f
11:20 9 10 mph 1012.5mb 67f
11:05 8 10 mph 1012.7mb 67f
10:50 6 10 mph 1012.8mb 67f